sensor_id;sensor_type;location;lat;lon;timestamp;temperature;humidity
9383;DHT22;4731;49.708;10.816;2023-09-19T00:01:39;15.10;99.90
9383;DHT22;4731;49.708;10.816;2023-09-19T00:04:07;15.00;99.90
9383;DHT22;4731;49.708;10.816;2023-09-19T00:06:35;16.10;99.90
9383;DHT22;4731;49.708;10.816;2023-09-19T00:09:03;15.00;99.90
9383;DHT22;4731;49.708;10.816;2023-09-19T00:11:30;15.00;99.90
9383;DHT22;4731;49.708;10.816;2023-09-19T00:13:56;15.60;99.90
9383;DHT22;4731;49.708;10.816;2023-09-19T00:16:25;14.90;99.90
9383;DHT22;4731;49.708;10.816;2023-09-19T00:18:52;14.90;99.90
9383;DHT22;4731;49.708;10.816;2023-09-19T00:21:20;14.90;99.90
9383;DHT22;4731;49.708;10.816;2023-09-19T00:23:47;14.90;99.90
9383;DHT22;4731;49.708;10.816;2023-09-19T00:26:14;14.90;99.90
9383;DHT22;4731;49.708;10.816;2023-09-19T00:28:43;14.80;99.90
9383;DHT22;4731;49.708;10.816;2023-09-19T00:31:10;14.80;99.90
9383;DHT22;4731;49.708;10.816;2023-09-19T00:33:37;17.00;99.90
9383;DHT22;4731;49.708;10.816;2023-09-19T00:36:04;14.80;99.90
9383;DHT22;4731;49.708;10.816;2023-09-19T00:38:32;14.80;99.90
9383;DHT22;4731;49.708;10.816;2023-09-19T00:40:59;14.70;99.90
9383;DHT22;4731;49.708;10.816;2023-09-19T00:43:26;14.80;99.90
9383;DHT22;4731;49.708;10.816;2023-09-19T00:45:54;14.70;99.90
9383;DHT22;4731;49.708;10.816;2023-09-19T00:48:22;14.70;99.90
9383;DHT22;4731;49.708;10.816;2023-09-19T00:50:50;14.70;99.90
9383;DHT22;4731;49.708;10.816;2023-09-19T00:53:21;14.80;99.90
9383;DHT22;4731;49.708;10.816;2023-09-19T00:55:52;16.30;99.90
9383;DHT22;4731;49.708;10.816;2023-09-19T00:58:19;14.70;99.90
9383;DHT22;4731;49.708;10.816;2023-09-19T01:00:48;14.70;99.90
9383;DHT22;4731;49.708;10.816;2023-09-19T01:03:15;14.70;99.90
9383;DHT22;4731;49.708;10.816;2023-09-19T01:05:43;14.60;99.90
9383;DHT22;4731;49.708;10.816;2023-09-19T01:08:10;14.60;99.90
9383;DHT22;4731;49.708;10.816;2023-09-19T01:10:42;14.60;99.90
9383;DHT22;4731;49.708;10.816;2023-09-19T01:13:20;14.60;99.90
9383;DHT22;4731;49.708;10.816;2023-09-19T01:15:54;14.60;99.90
9383;DHT22;4731;49.708;10.816;2023-09-19T01:18:30;14.70;99.90
9383;DHT22;4731;49.708;10.816;2023-09-19T01:21:07;14.60;99.90
9383;DHT22;4731;49.708;10.816;2023-09-19T01:24:05;14.60;99.90
9383;DHT22;4731;49.708;10.816;2023-09-19T01:26:53;14.60;99.90
9383;DHT22;4731;49.708;10.816;2023-09-19T01:29:33;14.60;99.90
9383;DHT22;4731;49.708;10.816;2023-09-19T01:32:07;14.60;99.90
9383;DHT22;4731;49.708;10.816;2023-09-19T01:34:45;15.40;99.90
9383;DHT22;4731;49.708;10.816;2023-09-19T01:37:14;14.70;99.90
9383;DHT22;4731;49.708;10.816;2023-09-19T01:39:46;16.20;99.90
9383;DHT22;4731;49.708;10.816;2023-09-19T01:42:23;14.80;99.90
9383;DHT22;4731;49.708;10.816;2023-09-19T01:44:55;14.90;99.90
9383;DHT22;4731;49.708;10.816;2023-09-19T01:47:32;14.90;99.90
9383;DHT22;4731;49.708;10.816;2023-09-19T01:50:11;15.00;99.90
9383;DHT22;4731;49.708;10.816;2023-09-19T01:52:48;15.00;99.90
9383;DHT22;4731;49.708;10.816;2023-09-19T01:55:16;15.10;99.90
9383;DHT22;4731;49.708;10.816;2023-09-19T01:57:49;15.20;99.90
9383;DHT22;4731;49.708;10.816;2023-09-19T02:00:20;15.20;99.90
9383;DHT22;4731;49.708;10.816;2023-09-19T02:02:50;15.30;99.90
9383;DHT22;4731;49.708;10.816;2023-09-19T02:05:25;16.70;99.90
9383;DHT22;4731;49.708;10.816;2023-09-19T02:07:53;15.30;99.90
9383;DHT22;4731;49.708;10.816;2023-09-19T02:10:21;15.30;99.90
9383;DHT22;4731;49.708;10.816;2023-09-19T02:12:47;15.40;99.90
9383;DHT22;4731;49.708;10.816;2023-09-19T02:15:15;15.40;99.90
9383;DHT22;4731;49.708;10.816;2023-09-19T02:17:42;15.50;99.90
9383;DHT22;4731;49.708;10.816;2023-09-19T02:20:11;15.50;99.90
9383;DHT22;4731;49.708;10.816;2023-09-19T02:22:40;15.60;99.90
9383;DHT22;4731;49.708;10.816;2023-09-19T02:25:07;15.50;99.90
9383;DHT22;4731;49.708;10.816;2023-09-19T02:27:34;15.50;99.90
9383;DHT22;4731;49.708;10.816;2023-09-19T02:30:03;15.30;99.90
9383;DHT22;4731;49.708;10.816;2023-09-19T02:32:31;15.20;99.90
9383;DHT22;4731;49.708;10.816;2023-09-19T02:35:01;15.10;99.90
9383;DHT22;4731;49.708;10.816;2023-09-19T02:37:32;15.20;99.90
9383;DHT22;4731;49.708;10.816;2023-09-19T02:40:15;15.10;99.90
9383;DHT22;4731;49.708;10.816;2023-09-19T02:42:45;15.00;99.90
9383;DHT22;4731;49.708;10.816;2023-09-19T02:45:14;15.10;99.90
9383;DHT22;4731;49.708;10.816;2023-09-19T02:47:41;14.90;99.90
9383;DHT22;4731;49.708;10.816;2023-09-19T02:50:09;14.90;99.90
9383;DHT22;4731;49.708;10.816;2023-09-19T02:52:38;14.90;99.90
9383;DHT22;4731;49.708;10.816;2023-09-19T02:55:05;14.80;99.90
9383;DHT22;4731;49.708;10.816;2023-09-19T02:57:34;14.70;99.90
9383;DHT22;4731;49.708;10.816;2023-09-19T03:00:02;14.70;99.90
9383;DHT22;4731;49.708;10.816;2023-09-19T03:02:30;14.70;99.90
9383;DHT22;4731;49.708;10.816;2023-09-19T03:04:58;14.70;99.90
9383;DHT22;4731;49.708;10.816;2023-09-19T03:07:26;14.70;99.90
9383;DHT22;4731;49.708;10.816;2023-09-19T03:09:54;14.70;99.90
9383;DHT22;4731;49.708;10.816;2023-09-19T03:12:21;14.70;99.90
9383;DHT22;4731;49.708;10.816;2023-09-19T03:14:48;14.60;99.90
9383;DHT22;4731;49.708;10.816;2023-09-19T03:17:16;14.60;99.90
9383;DHT22;4731;49.708;10.816;2023-09-19T03:19:45;14.70;99.90
9383;DHT22;4731;49.708;10.816;2023-09-19T03:22:12;14.80;99.90
9383;DHT22;4731;49.708;10.816;2023-09-19T03:24:39;14.80;99.90
9383;DHT22;4731;49.708;10.816;2023-09-19T03:27:08;14.80;99.90
9383;DHT22;4731;49.708;10.816;2023-09-19T03:29:35;14.80;99.90
9383;DHT22;4731;49.708;10.816;2023-09-19T03:32:03;14.80;99.90
9383;DHT22;4731;49.708;10.816;2023-09-19T03:34:30;14.70;99.90
9383;DHT22;4731;49.708;10.816;2023-09-19T03:36:56;14.70;99.90
9383;DHT22;4731;49.708;10.816;2023-09-19T03:39:23;14.70;99.90
9383;DHT22;4731;49.708;10.816;2023-09-19T03:41:50;14.70;99.90
9383;DHT22;4731;49.708;10.816;2023-09-19T03:44:18;14.70;99.90
9383;DHT22;4731;49.708;10.816;2023-09-19T03:46:45;14.80;99.90
9383;DHT22;4731;49.708;10.816;2023-09-19T03:49:12;14.80;99.90
9383;DHT22;4731;49.708;10.816;2023-09-19T03:51:38;14.80;99.90
9383;DHT22;4731;49.708;10.816;2023-09-19T03:54:07;14.90;99.90
9383;DHT22;4731;49.708;10.816;2023-09-19T03:56:34;16.10;99.90
9383;DHT22;4731;49.708;10.816;2023-09-19T03:59:00;15.10;99.90
9383;DHT22;4731;49.708;10.816;2023-09-19T04:01:30;15.20;99.90
9383;DHT22;4731;49.708;10.816;2023-09-19T04:03:58;15.20;99.90
9383;DHT22;4731;49.708;10.816;2023-09-19T04:06:33;15.30;99.90
9383;DHT22;4731;49.708;10.816;2023-09-19T04:09:00;17.40;99.90
9383;DHT22;4731;49.708;10.816;2023-09-19T04:11:27;15.40;99.90
9383;DHT22;4731;49.708;10.816;2023-09-19T04:13:54;15.40;99.90
9383;DHT22;4731;49.708;10.816;2023-09-19T04:16:20;15.50;99.90
9383;DHT22;4731;49.708;10.816;2023-09-19T04:18:48;16.10;99.90
9383;DHT22;4731;49.708;10.816;2023-09-19T04:21:15;15.60;99.90
9383;DHT22;4731;49.708;10.816;2023-09-19T04:23:42;17.10;99.90
9383;DHT22;4731;49.708;10.816;2023-09-19T04:26:09;15.70;99.90
9383;DHT22;4731;49.708;10.816;2023-09-19T04:28:36;16.50;99.90
9383;DHT22;4731;49.708;10.816;2023-09-19T04:31:04;15.70;99.90
9383;DHT22;4731;49.708;10.816;2023-09-19T04:33:30;15.80;99.90
9383;DHT22;4731;49.708;10.816;2023-09-19T04:36:02;15.90;99.90
9383;DHT22;4731;49.708;10.816;2023-09-19T04:38:32;15.90;99.90
9383;DHT22;4731;49.708;10.816;2023-09-19T04:40:59;16.20;99.90
9383;DHT22;4731;49.708;10.816;2023-09-19T04:43:26;17.90;99.90
9383;DHT22;4731;49.708;10.816;2023-09-19T04:45:54;16.00;99.90
9383;DHT22;4731;49.708;10.816;2023-09-19T04:48:21;16.00;99.90
9383;DHT22;4731;49.708;10.816;2023-09-19T04:50:49;16.00;99.90
9383;DHT22;4731;49.708;10.816;2023-09-19T04:53:17;16.00;99.90
9383;DHT22;4731;49.708;10.816;2023-09-19T04:55:50;16.00;99.90
9383;DHT22;4731;49.708;10.816;2023-09-19T04:58:18;15.90;99.90
9383;DHT22;4731;49.708;10.816;2023-09-19T05:00:45;15.90;99.90
9383;DHT22;4731;49.708;10.816;2023-09-19T05:03:11;15.90;99.90
9383;DHT22;4731;49.708;10.816;2023-09-19T05:05:38;16.10;99.90
9383;DHT22;4731;49.708;10.816;2023-09-19T05:08:06;13.90;99.90
9383;DHT22;4731;49.708;10.816;2023-09-19T05:10:36;15.80;99.90
9383;DHT22;4731;49.708;10.816;2023-09-19T05:13:03;15.90;99.90
9383;DHT22;4731;49.708;10.816;2023-09-19T05:15:30;15.80;99.90
9383;DHT22;4731;49.708;10.816;2023-09-19T05:17:57;17.00;99.90
9383;DHT22;4731;49.708;10.816;2023-09-19T05:20:24;16.60;99.90
9383;DHT22;4731;49.708;10.816;2023-09-19T05:22:58;15.70;99.90
9383;DHT22;4731;49.708;10.816;2023-09-19T05:28:44;15.80;99.90
9383;DHT22;4731;49.708;10.816;2023-09-19T05:31:13;15.90;99.90
9383;DHT22;4731;49.708;10.816;2023-09-19T05:33:41;15.80;99.90
9383;DHT22;4731;49.708;10.816;2023-09-19T05:36:07;15.80;99.90
9383;DHT22;4731;49.708;10.816;2023-09-19T05:38:36;17.20;99.90
9383;DHT22;4731;49.708;10.816;2023-09-19T05:41:05;15.90;99.90
9383;DHT22;4731;49.708;10.816;2023-09-19T05:43:32;15.80;99.90
9383;DHT22;4731;49.708;10.816;2023-09-19T05:46:01;15.80;99.90
9383;DHT22;4731;49.708;10.816;2023-09-19T05:48:28;15.80;99.90
9383;DHT22;4731;49.708;10.816;2023-09-19T05:50:56;15.80;99.90
9383;DHT22;4731;49.708;10.816;2023-09-19T05:53:22;16.50;99.90
9383;DHT22;4731;49.708;10.816;2023-09-19T05:55:49;15.90;99.90
9383;DHT22;4731;49.708;10.816;2023-09-19T05:58:17;15.90;99.90
9383;DHT22;4731;49.708;10.816;2023-09-19T06:00:45;15.90;99.90
9383;DHT22;4731;49.708;10.816;2023-09-19T06:03:15;16.30;99.90
9383;DHT22;4731;49.708;10.816;2023-09-19T06:05:43;16.70;99.90
9383;DHT22;4731;49.708;10.816;2023-09-19T06:08:11;17.20;99.90
9383;DHT22;4731;49.708;10.816;2023-09-19T06:10:38;18.50;99.90
9383;DHT22;4731;49.708;10.816;2023-09-19T06:13:05;19.80;99.90
9383;DHT22;4731;49.708;10.816;2023-09-19T06:15:35;20.90;99.90
9383;DHT22;4731;49.708;10.816;2023-09-19T06:18:02;21.30;99.90
9383;DHT22;4731;49.708;10.816;2023-09-19T06:20:31;21.50;99.90
9383;DHT22;4731;49.708;10.816;2023-09-19T06:22:58;21.90;99.90
9383;DHT22;4731;49.708;10.816;2023-09-19T06:25:27;22.70;99.90
9383;DHT22;4731;49.708;10.816;2023-09-19T06:27:54;23.60;99.90
9383;DHT22;4731;49.708;10.816;2023-09-19T06:30:22;24.00;99.90
9383;DHT22;4731;49.708;10.816;2023-09-19T06:32:55;24.40;99.90
9383;DHT22;4731;49.708;10.816;2023-09-19T06:35:22;24.90;99.90
9383;DHT22;4731;49.708;10.816;2023-09-19T06:37:50;25.40;99.90
9383;DHT22;4731;49.708;10.816;2023-09-19T06:40:18;25.00;99.90
9383;DHT22;4731;49.708;10.816;2023-09-19T06:42:46;25.20;99.90
9383;DHT22;4731;49.708;10.816;2023-09-19T06:45:13;25.70;99.90
9383;DHT22;4731;49.708;10.816;2023-09-19T06:47:43;25.30;99.90
9383;DHT22;4731;49.708;10.816;2023-09-19T06:50:10;24.90;99.90
9383;DHT22;4731;49.708;10.816;2023-09-19T06:52:39;24.10;99.90
9383;DHT22;4731;49.708;10.816;2023-09-19T06:55:08;23.30;99.90
9383;DHT22;4731;49.708;10.816;2023-09-19T06:57:35;22.40;99.90
9383;DHT22;4731;49.708;10.816;2023-09-19T07:00:02;22.40;99.90
9383;DHT22;4731;49.708;10.816;2023-09-19T07:02:34;23.20;99.90
9383;DHT22;4731;49.708;10.816;2023-09-19T07:05:01;23.60;99.90
9383;DHT22;4731;49.708;10.816;2023-09-19T07:07:28;23.40;99.90
9383;DHT22;4731;49.708;10.816;2023-09-19T07:09:55;22.50;99.90
9383;DHT22;4731;49.708;10.816;2023-09-19T07:12:23;22.10;99.90
9383;DHT22;4731;49.708;10.816;2023-09-19T07:14:50;21.50;99.90
9383;DHT22;4731;49.708;10.816;2023-09-19T07:17:17;20.90;99.90
9383;DHT22;4731;49.708;10.816;2023-09-19T07:19:44;21.20;99.90
9383;DHT22;4731;49.708;10.816;2023-09-19T07:22:13;21.60;99.90
9383;DHT22;4731;49.708;10.816;2023-09-19T07:24:40;21.00;99.90
9383;DHT22;4731;49.708;10.816;2023-09-19T07:27:07;21.30;99.90
9383;DHT22;4731;49.708;10.816;2023-09-19T07:29:35;21.80;99.90
9383;DHT22;4731;49.708;10.816;2023-09-19T07:32:04;21.70;99.90
9383;DHT22;4731;49.708;10.816;2023-09-19T07:34:31;21.30;99.90
9383;DHT22;4731;49.708;10.816;2023-09-19T07:36:58;22.20;99.90
9383;DHT22;4731;49.708;10.816;2023-09-19T07:39:25;22.30;99.90
9383;DHT22;4731;49.708;10.816;2023-09-19T07:41:52;22.30;99.90
9383;DHT22;4731;49.708;10.816;2023-09-19T07:44:19;23.60;99.90
9383;DHT22;4731;49.708;10.816;2023-09-19T07:46:48;24.20;99.90
9383;DHT22;4731;49.708;10.816;2023-09-19T07:49:16;24.60;99.90
9383;DHT22;4731;49.708;10.816;2023-09-19T07:51:44;24.90;99.90
9383;DHT22;4731;49.708;10.816;2023-09-19T07:54:12;25.10;99.90
9383;DHT22;4731;49.708;10.816;2023-09-19T07:56:40;24.40;99.90
9383;DHT22;4731;49.708;10.816;2023-09-19T07:59:07;24.10;99.90
9383;DHT22;4731;49.708;10.816;2023-09-19T08:01:35;24.20;99.90
9383;DHT22;4731;49.708;10.816;2023-09-19T08:04:04;24.30;99.90
9383;DHT22;4731;49.708;10.816;2023-09-19T08:06:31;24.70;99.90
9383;DHT22;4731;49.708;10.816;2023-09-19T08:08:58;25.90;99.90
9383;DHT22;4731;49.708;10.816;2023-09-19T08:11:26;26.10;99.90
9383;DHT22;4731;49.708;10.816;2023-09-19T08:13:56;25.80;99.90
9383;DHT22;4731;49.708;10.816;2023-09-19T08:16:23;26.80;99.90
9383;DHT22;4731;49.708;10.816;2023-09-19T08:18:50;27.70;99.90
9383;DHT22;4731;49.708;10.816;2023-09-19T08:21:22;28.20;99.90
9383;DHT22;4731;49.708;10.816;2023-09-19T08:23:49;27.70;99.90
9383;DHT22;4731;49.708;10.816;2023-09-19T08:26:16;27.00;99.90
9383;DHT22;4731;49.708;10.816;2023-09-19T08:28:43;26.90;99.90
9383;DHT22;4731;49.708;10.816;2023-09-19T08:31:10;26.50;99.90
9383;DHT22;4731;49.708;10.816;2023-09-19T08:33:37;25.80;99.90
9383;DHT22;4731;49.708;10.816;2023-09-19T08:36:06;25.20;99.90
9383;DHT22;4731;49.708;10.816;2023-09-19T08:38:36;25.00;99.90
9383;DHT22;4731;49.708;10.816;2023-09-19T08:41:06;24.80;99.90
9383;DHT22;4731;49.708;10.816;2023-09-19T08:43:34;24.10;99.90
9383;DHT22;4731;49.708;10.816;2023-09-19T08:46:07;23.10;99.90
9383;DHT22;4731;49.708;10.816;2023-09-19T08:48:39;22.50;99.90
9383;DHT22;4731;49.708;10.816;2023-09-19T08:51:07;21.80;99.90
9383;DHT22;4731;49.708;10.816;2023-09-19T08:53:43;21.40;99.90
9383;DHT22;4731;49.708;10.816;2023-09-19T08:56:17;21.50;99.90
9383;DHT22;4731;49.708;10.816;2023-09-19T08:58:48;22.70;99.90
9383;DHT22;4731;49.708;10.816;2023-09-19T09:01:16;22.90;99.90
9383;DHT22;4731;49.708;10.816;2023-09-19T09:03:48;22.80;99.90
9383;DHT22;4731;49.708;10.816;2023-09-19T09:06:16;22.50;99.90
9383;DHT22;4731;49.708;10.816;2023-09-19T09:08:45;22.60;99.90
9383;DHT22;4731;49.708;10.816;2023-09-19T09:11:13;22.90;99.90
9383;DHT22;4731;49.708;10.816;2023-09-19T09:13:43;23.40;99.90
9383;DHT22;4731;49.708;10.816;2023-09-19T09:16:10;23.90;99.90
9383;DHT22;4731;49.708;10.816;2023-09-19T09:18:38;23.50;99.90
9383;DHT22;4731;49.708;10.816;2023-09-19T09:21:05;23.00;99.90
9383;DHT22;4731;49.708;10.816;2023-09-19T09:23:32;22.90;99.90
9383;DHT22;4731;49.708;10.816;2023-09-19T09:26:00;22.40;99.90
9383;DHT22;4731;49.708;10.816;2023-09-19T09:28:31;21.70;99.90
9383;DHT22;4731;49.708;10.816;2023-09-19T09:30:59;21.40;99.90
9383;DHT22;4731;49.708;10.816;2023-09-19T09:33:28;20.70;99.90
9383;DHT22;4731;49.708;10.816;2023-09-19T09:35:56;20.30;99.90
9383;DHT22;4731;49.708;10.816;2023-09-19T09:38:27;20.20;99.90
9383;DHT22;4731;49.708;10.816;2023-09-19T09:40:58;19.90;99.90
9383;DHT22;4731;49.708;10.816;2023-09-19T09:43:29;19.60;99.90
9383;DHT22;4731;49.708;10.816;2023-09-19T09:46:07;19.50;99.90
9383;DHT22;4731;49.708;10.816;2023-09-19T09:48:59;21.70;99.90
9383;DHT22;4731;49.708;10.816;2023-09-19T09:51:45;20.90;99.90
9383;DHT22;4731;49.708;10.816;2023-09-19T09:54:15;21.70;99.90
9383;DHT22;4731;49.708;10.816;2023-09-19T09:56:55;21.50;99.90
9383;DHT22;4731;49.708;10.816;2023-09-19T09:59:49;21.70;99.90
9383;DHT22;4731;49.708;10.816;2023-09-19T10:02:17;22.00;99.90
9383;DHT22;4731;49.708;10.816;2023-09-19T10:04:48;22.40;99.90
9383;DHT22;4731;49.708;10.816;2023-09-19T10:07:28;23.30;99.90
9383;DHT22;4731;49.708;10.816;2023-09-19T10:10:00;24.60;99.90
9383;DHT22;4731;49.708;10.816;2023-09-19T10:12:46;25.20;99.90
9383;DHT22;4731;49.708;10.816;2023-09-19T10:15:16;26.40;99.90
9383;DHT22;4731;49.708;10.816;2023-09-19T10:17:46;27.50;99.90
9383;DHT22;4731;49.708;10.816;2023-09-19T10:20:14;27.80;99.90
9383;DHT22;4731;49.708;10.816;2023-09-19T10:22:59;29.00;99.90
9383;DHT22;4731;49.708;10.816;2023-09-19T10:25:27;29.30;99.90
9383;DHT22;4731;49.708;10.816;2023-09-19T10:27:56;28.20;99.90
9383;DHT22;4731;49.708;10.816;2023-09-19T10:30:27;27.70;99.90
9383;DHT22;4731;49.708;10.816;2023-09-19T10:33:01;27.50;99.90
9383;DHT22;4731;49.708;10.816;2023-09-19T10:35:28;26.50;99.90
9383;DHT22;4731;49.708;10.816;2023-09-19T10:37:59;26.30;99.90
9383;DHT22;4731;49.708;10.816;2023-09-19T10:40:27;26.20;99.90
9383;DHT22;4731;49.708;10.816;2023-09-19T10:43:01;26.20;99.90
9383;DHT22;4731;49.708;10.816;2023-09-19T10:45:32;25.30;99.90
9383;DHT22;4731;49.708;10.816;2023-09-19T10:47:59;26.30;99.90
9383;DHT22;4731;49.708;10.816;2023-09-19T10:50:29;26.70;99.90
9383;DHT22;4731;49.708;10.816;2023-09-19T10:53:00;26.80;99.90
9383;DHT22;4731;49.708;10.816;2023-09-19T10:55:31;27.30;99.90
9383;DHT22;4731;49.708;10.816;2023-09-19T10:57:59;28.30;99.90
9383;DHT22;4731;49.708;10.816;2023-09-19T11:00:31;28.60;99.90
9383;DHT22;4731;49.708;10.816;2023-09-19T11:03:20;28.50;99.90
9383;DHT22;4731;49.708;10.816;2023-09-19T11:06:05;28.60;99.90
9383;DHT22;4731;49.708;10.816;2023-09-19T11:08:55;28.70;99.90
9383;DHT22;4731;49.708;10.816;2023-09-19T11:11:45;28.00;99.90
9383;DHT22;4731;49.708;10.816;2023-09-19T11:14:46;27.70;99.90
9383;DHT22;4731;49.708;10.816;2023-09-19T11:17:41;28.20;99.90
9383;DHT22;4731;49.708;10.816;2023-09-19T11:20:22;29.40;99.90
9383;DHT22;4731;49.708;10.816;2023-09-19T11:23:25;27.30;99.90
9383;DHT22;4731;49.708;10.816;2023-09-19T11:25:53;25.60;99.90
9383;DHT22;4731;49.708;10.816;2023-09-19T11:28:34;24.70;99.90
9383;DHT22;4731;49.708;10.816;2023-09-19T11:31:41;24.40;99.90
9383;DHT22;4731;49.708;10.816;2023-09-19T11:34:41;26.40;99.90
9383;DHT22;4731;49.708;10.816;2023-09-19T11:40:28;30.10;99.90
9383;DHT22;4731;49.708;10.816;2023-09-19T11:42:56;30.60;99.90
9383;DHT22;4731;49.708;10.816;2023-09-19T11:48:27;30.60;99.90
9383;DHT22;4731;49.708;10.816;2023-09-19T11:50:56;30.40;99.90
9383;DHT22;4731;49.708;10.816;2023-09-19T11:53:31;30.10;99.90
9383;DHT22;4731;49.708;10.816;2023-09-19T11:56:02;29.70;99.90
9383;DHT22;4731;49.708;10.816;2023-09-19T11:58:32;30.80;99.90
9383;DHT22;4731;49.708;10.816;2023-09-19T12:01:00;30.10;99.90
9383;DHT22;4731;49.708;10.816;2023-09-19T12:03:34;30.60;99.90
9383;DHT22;4731;49.708;10.816;2023-09-19T12:06:12;30.40;99.90
9383;DHT22;4731;49.708;10.816;2023-09-19T12:08:40;29.70;99.90
9383;DHT22;4731;49.708;10.816;2023-09-19T12:11:12;28.70;99.90
9383;DHT22;4731;49.708;10.816;2023-09-19T12:13:44;29.20;99.90
9383;DHT22;4731;49.708;10.816;2023-09-19T12:16:16;29.10;99.90
9383;DHT22;4731;49.708;10.816;2023-09-19T12:18:44;29.00;99.90
9383;DHT22;4731;49.708;10.816;2023-09-19T12:21:28;29.10;99.90
9383;DHT22;4731;49.708;10.816;2023-09-19T12:24:03;27.60;99.90
9383;DHT22;4731;49.708;10.816;2023-09-19T12:26:38;28.00;99.90
9383;DHT22;4731;49.708;10.816;2023-09-19T12:29:11;28.10;99.90
9383;DHT22;4731;49.708;10.816;2023-09-19T12:31:50;28.90;99.90
9383;DHT22;4731;49.708;10.816;2023-09-19T12:34:23;29.30;99.90
9383;DHT22;4731;49.708;10.816;2023-09-19T12:37:11;29.00;99.50
9383;DHT22;4731;49.708;10.816;2023-09-19T12:39:42;28.60;99.90
9383;DHT22;4731;49.708;10.816;2023-09-19T12:42:14;28.20;99.80
9383;DHT22;4731;49.708;10.816;2023-09-19T12:44:47;27.90;99.90
9383;DHT22;4731;49.708;10.816;2023-09-19T12:47:20;27.00;99.90
9383;DHT22;4731;49.708;10.816;2023-09-19T12:50:09;26.60;99.90
9383;DHT22;4731;49.708;10.816;2023-09-19T12:52:43;25.70;99.90
9383;DHT22;4731;49.708;10.816;2023-09-19T12:55:20;25.50;99.90
9383;DHT22;4731;49.708;10.816;2023-09-19T12:58:11;25.70;99.90
9383;DHT22;4731;49.708;10.816;2023-09-19T13:00:44;25.80;99.90
9383;DHT22;4731;49.708;10.816;2023-09-19T13:03:13;25.80;99.90
9383;DHT22;4731;49.708;10.816;2023-09-19T13:05:52;26.10;99.90
9383;DHT22;4731;49.708;10.816;2023-09-19T13:08:25;26.70;99.90
9383;DHT22;4731;49.708;10.816;2023-09-19T13:11:11;26.40;99.90
9383;DHT22;4731;49.708;10.816;2023-09-19T13:13:41;26.80;99.90
9383;DHT22;4731;49.708;10.816;2023-09-19T13:16:10;27.10;99.90
9383;DHT22;4731;49.708;10.816;2023-09-19T13:18:47;27.80;99.90
9383;DHT22;4731;49.708;10.816;2023-09-19T13:21:17;28.20;99.90
9383;DHT22;4731;49.708;10.816;2023-09-19T13:23:54;26.80;99.90
9383;DHT22;4731;49.708;10.816;2023-09-19T13:26:28;26.40;99.90
9383;DHT22;4731;49.708;10.816;2023-09-19T13:28:55;27.20;99.90
9383;DHT22;4731;49.708;10.816;2023-09-19T13:33:50;26.50;99.90
9383;DHT22;4731;49.708;10.816;2023-09-19T13:36:19;26.60;99.90
9383;DHT22;4731;49.708;10.816;2023-09-19T13:38:46;26.30;99.90
9383;DHT22;4731;49.708;10.816;2023-09-19T13:41:16;27.00;99.90
9383;DHT22;4731;49.708;10.816;2023-09-19T13:43:43;27.60;99.90
9383;DHT22;4731;49.708;10.816;2023-09-19T13:46:13;28.40;99.90
9383;DHT22;4731;49.708;10.816;2023-09-19T13:48:42;28.50;99.90
9383;DHT22;4731;49.708;10.816;2023-09-19T13:51:08;28.30;99.90
9383;DHT22;4731;49.708;10.816;2023-09-19T13:53:36;28.20;99.90
9383;DHT22;4731;49.708;10.816;2023-09-19T13:56:03;28.30;99.60
9383;DHT22;4731;49.708;10.816;2023-09-19T13:58:31;28.20;99.90
9383;DHT22;4731;49.708;10.816;2023-09-19T14:00:59;28.10;99.90
9383;DHT22;4731;49.708;10.816;2023-09-19T14:03:26;28.00;99.40
9383;DHT22;4731;49.708;10.816;2023-09-19T14:05:54;28.10;99.70
9383;DHT22;4731;49.708;10.816;2023-09-19T14:08:21;28.20;98.70
9383;DHT22;4731;49.708;10.816;2023-09-19T14:10:49;28.10;98.50
9383;DHT22;4731;49.708;10.816;2023-09-19T14:13:16;27.50;99.90
9383;DHT22;4731;49.708;10.816;2023-09-19T14:15:47;26.70;99.90
9383;DHT22;4731;49.708;10.816;2023-09-19T14:18:27;26.60;99.90
9383;DHT22;4731;49.708;10.816;2023-09-19T14:20:54;27.50;99.90
9383;DHT22;4731;49.708;10.816;2023-09-19T14:23:26;27.60;99.50
9383;DHT22;4731;49.708;10.816;2023-09-19T14:26:01;27.40;99.90
9383;DHT22;4731;49.708;10.816;2023-09-19T14:28:30;26.50;99.90
9383;DHT22;4731;49.708;10.816;2023-09-19T14:31:06;26.60;99.90
9383;DHT22;4731;49.708;10.816;2023-09-19T14:33:34;26.10;99.90
9383;DHT22;4731;49.708;10.816;2023-09-19T14:36:04;25.90;99.90
9383;DHT22;4731;49.708;10.816;2023-09-19T14:38:33;25.40;99.90
9383;DHT22;4731;49.708;10.816;2023-09-19T14:41:00;25.30;99.90
9383;DHT22;4731;49.708;10.816;2023-09-19T14:43:28;25.00;99.90
9383;DHT22;4731;49.708;10.816;2023-09-19T14:45:55;24.90;99.90
9383;DHT22;4731;49.708;10.816;2023-09-19T14:48:25;25.10;99.90
9383;DHT22;4731;49.708;10.816;2023-09-19T14:50:52;24.50;99.90
9383;DHT22;4731;49.708;10.816;2023-09-19T14:53:20;24.60;99.90
9383;DHT22;4731;49.708;10.816;2023-09-19T14:55:47;24.30;99.90
9383;DHT22;4731;49.708;10.816;2023-09-19T14:58:18;24.20;99.90
9383;DHT22;4731;49.708;10.816;2023-09-19T15:00:47;23.50;99.90
9383;DHT22;4731;49.708;10.816;2023-09-19T15:03:14;23.10;99.90
9383;DHT22;4731;49.708;10.816;2023-09-19T15:05:44;23.00;99.90
9383;DHT22;4731;49.708;10.816;2023-09-19T15:08:13;23.00;99.90
9383;DHT22;4731;49.708;10.816;2023-09-19T15:10:49;22.90;99.90
9383;DHT22;4731;49.708;10.816;2023-09-19T15:13:19;22.60;99.90
9383;DHT22;4731;49.708;10.816;2023-09-19T15:15:46;22.40;99.90
9383;DHT22;4731;49.708;10.816;2023-09-19T15:18:14;22.30;99.90
9383;DHT22;4731;49.708;10.816;2023-09-19T15:20:44;22.20;99.90
9383;DHT22;4731;49.708;10.816;2023-09-19T15:23:11;22.10;99.90
9383;DHT22;4731;49.708;10.816;2023-09-19T15:25:38;21.90;99.90
9383;DHT22;4731;49.708;10.816;2023-09-19T15:28:06;21.80;99.90
9383;DHT22;4731;49.708;10.816;2023-09-19T15:30:37;22.00;99.90
9383;DHT22;4731;49.708;10.816;2023-09-19T15:33:04;21.90;99.90
9383;DHT22;4731;49.708;10.816;2023-09-19T15:35:31;21.80;99.90
9383;DHT22;4731;49.708;10.816;2023-09-19T15:37:59;21.80;99.90
9383;DHT22;4731;49.708;10.816;2023-09-19T15:40:27;21.80;99.90
9383;DHT22;4731;49.708;10.816;2023-09-19T15:42:55;21.80;99.90
9383;DHT22;4731;49.708;10.816;2023-09-19T15:45:23;21.90;99.90
9383;DHT22;4731;49.708;10.816;2023-09-19T15:47:50;21.90;99.90
9383;DHT22;4731;49.708;10.816;2023-09-19T15:50:18;21.90;99.90
9383;DHT22;4731;49.708;10.816;2023-09-19T15:52:45;21.80;99.90
9383;DHT22;4731;49.708;10.816;2023-09-19T15:55:13;21.80;99.90
9383;DHT22;4731;49.708;10.816;2023-09-19T15:57:40;21.80;99.90
9383;DHT22;4731;49.708;10.816;2023-09-19T16:00:08;21.80;99.90
9383;DHT22;4731;49.708;10.816;2023-09-19T16:02:39;21.60;99.90
9383;DHT22;4731;49.708;10.816;2023-09-19T16:05:06;21.60;99.90
9383;DHT22;4731;49.708;10.816;2023-09-19T16:07:33;21.60;99.90
9383;DHT22;4731;49.708;10.816;2023-09-19T16:10:02;21.40;99.90
9383;DHT22;4731;49.708;10.816;2023-09-19T16:12:45;21.30;99.90
9383;DHT22;4731;49.708;10.816;2023-09-19T16:15:12;21.30;99.90
9383;DHT22;4731;49.708;10.816;2023-09-19T16:17:40;21.20;99.90